Huvudsida
METAR-TAF:

METAR-TAF

Flygplatser :

Sandefjords flygplats. Torp

Sandefjords, Norge

latitud: 59-12N, longitud: 010-16E, höjd: 8 m

Aktuellt väderrapport

Denna rapport gjordes för 18 minuter sedan, klockan 02:50 UTC
Vind 5 kt från syd/sydväst
Temperatur 12°C
Fuktighet 94%
Tryck 1002 hPa
Sikt 10 km eller mer

METAR: ENTO 180250Z AUTO 21005KT 9999 NCD 12/11 Q1002

Tid: 05:08 (03:08 UTC)

Väderprognos

Prognos gäller från 18 kl. 00 UTC till 18 kl. 24 UTC
Vind 15 kt från syd
Sikt 10 km eller mer
Få moln på en höjd av 800 ft
Spridda moln på en höjd av 2000 ft
Sannolikhet 30% :
Temporärt
från 18 kl. 00 UTC till 18 kl. 05 UTC
Brutna moln på en höjd av 800 ft
Temporärt
från 18 kl. 12 UTC till 18 kl. 24 UTC
Få moln på en höjd av 2000 ft, Cumulonimbus.
Brutna moln på en höjd av 3000 ft
Sannolikhet 30%
från 18 kl. 16 UTC till 18 kl. 24 UTC
Sikt: 4000 m
åska, regn

TAF: ENTO 1800/1824 18015KT 9999 FEW008 SCT020 PROB30 TEMPO 1800/1805 BKN008 TEMPO 1812/1824 FEW020CB BKN030 PROB30 1816/1824 4000 TSRA

Aktuella väderrapporter och prognoser från 4000 flygplatser (METAR- och TAF-rapporter).

De tillgängliga stationerna syns som gula och röda prickar på kartan.

För musen över prickarna för att se namnen på stationerna.

Klicka sedan för att få väderrapporter och prognoser.

För att ändra kartan: Klicka på de gröna knapparna med ett svart kors på för att zooma in; den gröna knappen med ett streck på för att zooma ut; eller på de gröna pilarna för angränsande kartor.


METAR-TAF: